createdAt,value
2022-09-11T00:02:16.929Z,7.88
2022-09-11T00:04:40.475Z,7.60
2022-09-11T00:07:04.102Z,8.10
2022-09-11T00:09:27.715Z,7.20
2022-09-11T00:11:51.811Z,6.93
2022-09-11T00:14:15.959Z,7.25
2022-09-11T00:16:44.897Z,7.47
2022-09-11T00:19:11.805Z,6.85
2022-09-11T00:21:35.894Z,7.75
2022-09-11T00:24:00.109Z,6.95
2022-09-11T00:26:24.791Z,7.47
2022-09-11T00:28:50.565Z,7.28
2022-09-11T00:31:17.686Z,7.15
2022-09-11T00:33:43.323Z,6.78
2022-09-11T00:36:10.086Z,7.50
2022-09-11T00:38:37.250Z,7.20
2022-09-11T00:41:02.675Z,6.90
2022-09-11T00:43:27.319Z,6.88
2022-09-11T00:45:57.728Z,6.82
2022-09-11T00:48:25.891Z,6.93
2022-09-11T00:50:52.235Z,7.43
2022-09-11T00:53:18.828Z,6.95
2022-09-11T00:55:50.736Z,6.78
2022-09-11T00:58:19.569Z,7.07
2022-09-11T01:00:45.975Z,6.72
2022-09-11T01:03:09.647Z,7.28
2022-09-11T01:05:34.859Z,7.78
2022-09-11T01:07:59.855Z,6.93
2022-09-11T01:10:48.115Z,6.85
2022-09-11T01:13:20.723Z,7.82
2022-09-11T01:15:53.804Z,7.47
2022-09-11T01:18:26.143Z,7.93
2022-09-11T01:21:09.573Z,7.95
2022-09-11T01:24:01.564Z,7.70
2022-09-11T01:27:08.328Z,7.35
2022-09-11T01:29:40.474Z,8.20
2022-09-11T01:32:11.824Z,7.35
2022-09-11T01:34:45.350Z,6.53
2022-09-11T01:37:15.564Z,6.95
2022-09-11T01:39:47.837Z,6.78
2022-09-11T01:42:16.948Z,7.25
2022-09-11T01:44:46.859Z,6.88
2022-09-11T01:47:12.018Z,7.07
2022-09-11T01:49:39.952Z,7.43
2022-09-11T01:52:10.582Z,8.02
2022-09-11T01:54:39.422Z,8.23
2022-09-11T01:57:09.661Z,7.60
2022-09-11T01:59:39.957Z,7.28
2022-09-11T02:02:09.564Z,7.45
2022-09-11T02:04:39.016Z,7.45
2022-09-11T02:07:08.023Z,6.97
2022-09-11T02:09:37.633Z,6.70
2022-09-11T02:12:07.155Z,8.07
2022-09-11T02:14:38.558Z,7.10
2022-09-11T02:17:12.311Z,8.13
2022-09-11T02:19:37.074Z,6.85
2022-09-11T02:22:01.008Z,7.18
2022-09-11T02:24:24.925Z,8.13
2022-09-11T02:26:53.944Z,8.75
2022-09-11T02:29:17.968Z,7.93
2022-09-11T02:31:42.427Z,8.43
2022-09-11T02:34:07.518Z,6.88
2022-09-11T02:36:59.718Z,7.95
2022-09-11T02:39:47.257Z,7.93
2022-09-11T02:42:28.864Z,8.05
2022-09-11T02:45:04.914Z,9.07
2022-09-11T02:47:44.006Z,8.40
2022-09-11T02:50:23.735Z,9.05
2022-09-11T02:52:57.703Z,8.93
2022-09-11T02:55:26.691Z,9.02
2022-09-11T02:57:58.767Z,10.15
2022-09-11T03:00:23.503Z,9.93
2022-09-11T03:02:49.280Z,11.50
2022-09-11T03:05:14.618Z,12.55
2022-09-11T03:07:39.215Z,14.60
2022-09-11T03:10:02.855Z,13.95
2022-09-11T03:12:27.295Z,15.07
2022-09-11T03:14:50.887Z,15.43
2022-09-11T03:17:14.616Z,14.95
2022-09-11T03:19:38.231Z,14.48
2022-09-11T03:22:03.351Z,15.05
2022-09-11T03:24:27.295Z,15.13
2022-09-11T03:26:50.884Z,14.95
2022-09-11T03:29:14.751Z,15.90
2022-09-11T03:31:39.672Z,14.63
2022-09-11T03:34:04.602Z,15.35
2022-09-11T03:36:28.268Z,14.85
2022-09-11T03:38:55.111Z,14.77
2022-09-11T03:41:19.019Z,14.68
2022-09-11T03:43:42.701Z,14.48
2022-09-11T03:46:06.486Z,14.52
2022-09-11T03:48:30.443Z,14.13
2022-09-11T03:50:54.600Z,15.10
2022-09-11T03:53:19.223Z,14.95
2022-09-11T03:55:46.278Z,15.05
2022-09-11T03:58:09.896Z,15.73
2022-09-11T04:00:37.657Z,15.70
2022-09-11T04:03:02.120Z,15.38
2022-09-11T04:05:32.587Z,17.08
2022-09-11T04:07:57.651Z,16.00
2022-09-11T04:10:21.491Z,16.83
2022-09-11T04:12:46.780Z,16.63
2022-09-11T04:15:11.002Z,16.85
2022-09-11T04:17:34.964Z,17.85
2022-09-11T04:19:59.070Z,17.17
2022-09-11T04:22:23.950Z,17.27
2022-09-11T04:24:48.239Z,16.83
2022-09-11T04:27:12.344Z,16.92
2022-09-11T04:29:37.716Z,17.45
2022-09-11T04:32:04.822Z,19.35
2022-09-11T04:34:31.558Z,17.23
2022-09-11T04:36:55.538Z,18.17
2022-09-11T04:39:19.768Z,18.48
2022-09-11T04:41:45.255Z,17.88
2022-09-11T04:44:09.020Z,18.05
2022-09-11T04:46:39.871Z,18.48
2022-09-11T04:49:04.893Z,19.33
2022-09-11T04:51:32.178Z,19.55
2022-09-11T04:53:57.943Z,19.67
2022-09-11T04:56:29.211Z,20.40
2022-09-11T04:58:58.919Z,18.50
2022-09-11T05:01:29.287Z,19.02
2022-09-11T05:03:56.391Z,19.30
2022-09-11T05:06:20.118Z,19.23
2022-09-11T05:08:46.455Z,19.77
2022-09-11T05:11:15.097Z,20.38
2022-09-11T05:13:38.837Z,20.33
2022-09-11T05:16:03.663Z,20.27
2022-09-11T05:18:27.543Z,21.55
2022-09-11T05:21:01.703Z,21.30
2022-09-11T05:23:25.843Z,21.48
2022-09-11T05:25:50.155Z,20.77
2022-09-11T05:28:13.826Z,22.88
2022-09-11T05:30:37.501Z,22.65
2022-09-11T05:33:01.160Z,21.95
2022-09-11T05:35:29.210Z,23.50
2022-09-11T05:37:56.799Z,21.45
2022-09-11T05:40:20.315Z,22.55
2022-09-11T05:42:43.869Z,23.02
2022-09-11T05:45:09.134Z,22.98
2022-09-11T05:47:34.512Z,23.13
2022-09-11T05:49:58.047Z,23.13
2022-09-11T05:52:22.422Z,24.92
2022-09-11T05:54:48.942Z,23.15
2022-09-11T05:57:12.839Z,22.73
2022-09-11T05:59:36.719Z,21.73
2022-09-11T06:02:00.421Z,22.27
2022-09-11T06:04:35.751Z,22.35
2022-09-11T06:06:59.351Z,21.77
2022-09-11T06:09:24.608Z,21.48
2022-09-11T06:11:50.420Z,21.67
2022-09-11T06:14:14.120Z,20.27
2022-09-11T06:16:41.035Z,20.60
2022-09-11T06:19:08.672Z,19.90
2022-09-11T06:21:32.404Z,21.83
2022-09-11T06:24:05.822Z,20.35
2022-09-11T06:26:31.000Z,20.25
2022-09-11T06:28:57.201Z,20.92
2022-09-11T06:31:24.356Z,20.48
2022-09-11T06:33:50.173Z,19.67
2022-09-11T06:36:16.636Z,17.95
2022-09-11T06:38:40.545Z,18.25
2022-09-11T06:41:12.688Z,18.58
2022-09-11T06:43:36.527Z,19.42
2022-09-11T06:46:07.189Z,18.10
2022-09-11T06:48:31.878Z,17.90
2022-09-11T06:50:55.655Z,18.45
2022-09-11T06:53:19.219Z,18.60
2022-09-11T06:55:48.805Z,17.85
2022-09-11T06:58:13.689Z,18.23
2022-09-11T07:00:38.104Z,18.38
2022-09-11T07:03:03.257Z,17.92
2022-09-11T07:05:27.535Z,18.73
2022-09-11T07:07:54.252Z,17.77
2022-09-11T07:10:18.180Z,17.85
2022-09-11T07:12:46.125Z,18.35
2022-09-11T07:15:12.007Z,17.88
2022-09-11T07:17:36.446Z,17.50
2022-09-11T07:20:02.166Z,17.63
2022-09-11T07:22:26.571Z,16.80
2022-09-11T07:24:54.964Z,16.50
2022-09-11T07:27:19.402Z,16.60
2022-09-11T07:29:44.190Z,17.08
2022-09-11T07:32:07.921Z,17.08
2022-09-11T07:34:31.902Z,17.20
2022-09-11T07:37:01.637Z,16.02
2022-09-11T07:39:25.360Z,16.42
2022-09-11T07:42:03.075Z,16.38
2022-09-11T07:44:29.508Z,16.80
2022-09-11T07:46:54.215Z,15.60
2022-09-11T07:49:17.859Z,15.73
2022-09-11T07:51:41.539Z,15.23
2022-09-11T07:54:08.158Z,16.27
2022-09-11T07:56:36.363Z,15.40
2022-09-11T07:59:02.650Z,14.77
2022-09-11T08:01:30.515Z,15.88
2022-09-11T08:03:58.346Z,14.77
2022-09-11T08:06:24.375Z,15.23
2022-09-11T08:08:54.760Z,14.70
2022-09-11T08:11:20.932Z,14.68
2022-09-11T08:13:50.838Z,14.52
2022-09-11T08:16:16.665Z,14.70
2022-09-11T08:18:40.255Z,13.80
2022-09-11T08:21:05.224Z,13.90
2022-09-11T08:23:31.213Z,14.15
2022-09-11T08:25:57.360Z,11.95
2022-09-11T08:28:22.387Z,12.55
2022-09-11T08:30:45.976Z,12.68
2022-09-11T08:33:09.730Z,12.10
2022-09-11T08:35:35.519Z,13.38
2022-09-11T08:38:00.120Z,11.98
2022-09-11T08:40:24.294Z,12.55
2022-09-11T08:42:49.075Z,12.40
2022-09-11T08:45:18.286Z,12.90
2022-09-11T08:47:42.823Z,11.98
2022-09-11T08:50:13.567Z,12.25
2022-09-11T08:52:37.969Z,12.02
2022-09-11T08:55:06.878Z,12.07
2022-09-11T08:57:45.727Z,12.93
2022-09-11T09:00:21.130Z,11.70
2022-09-11T09:03:39.324Z,12.35
2022-09-11T09:06:24.740Z,12.10
2022-09-11T09:09:00.709Z,12.57
2022-09-11T09:11:36.289Z,10.80
2022-09-11T09:14:34.251Z,11.10
2022-09-11T09:17:04.137Z,11.43
2022-09-11T09:19:36.409Z,11.65
2022-09-11T09:22:10.965Z,11.30
2022-09-11T09:24:42.593Z,12.10
2022-09-11T09:27:10.453Z,11.88
2022-09-11T09:29:40.576Z,11.50
2022-09-11T09:32:17.119Z,12.32
2022-09-11T09:34:45.916Z,13.43
2022-09-11T09:37:20.364Z,11.73
2022-09-11T09:39:44.756Z,11.63
2022-09-11T09:43:06.499Z,12.63
2022-09-11T09:45:52.034Z,12.02
2022-09-11T09:48:17.546Z,12.50
2022-09-11T09:50:43.965Z,12.52
2022-09-11T09:53:17.267Z,12.27
2022-09-11T09:55:42.434Z,10.70
2022-09-11T09:58:07.211Z,10.75
2022-09-11T10:00:32.757Z,10.10
2022-09-11T10:02:58.162Z,10.60
2022-09-11T10:05:28.513Z,10.13
2022-09-11T10:07:54.834Z,10.70
2022-09-11T10:10:40.624Z,10.80
2022-09-11T10:13:19.079Z,11.40
2022-09-11T10:15:43.386Z,10.25
2022-09-11T10:18:40.183Z,11.05
2022-09-11T10:21:29.419Z,10.00
2022-09-11T10:23:56.023Z,9.95
2022-09-11T10:26:27.181Z,10.02
2022-09-11T10:28:51.202Z,10.13
2022-09-11T10:31:17.607Z,9.90
2022-09-11T10:33:46.659Z,10.10
2022-09-11T10:36:11.784Z,9.57
2022-09-11T10:38:47.992Z,9.07
2022-09-11T10:41:19.289Z,9.77
2022-09-11T10:43:49.207Z,9.65
2022-09-11T10:46:39.906Z,8.77
2022-09-11T10:49:17.597Z,9.23
2022-09-11T10:51:47.385Z,9.48
2022-09-11T10:54:32.727Z,8.75
2022-09-11T10:57:06.127Z,10.85
2022-09-11T10:59:39.485Z,12.75
2022-09-11T11:02:03.521Z,9.07
2022-09-11T11:04:30.615Z,9.10
2022-09-11T11:07:09.927Z,8.30
2022-09-11T11:09:54.439Z,8.57
2022-09-11T11:12:41.426Z,8.30
2022-09-11T11:15:32.121Z,7.88
2022-09-11T11:18:24.098Z,8.45
2022-09-11T11:20:56.339Z,8.40
2022-09-11T11:23:47.031Z,7.85
2022-09-11T11:26:33.075Z,6.72
2022-09-11T11:29:29.776Z,6.22
2022-09-11T11:32:11.667Z,6.03
2022-09-11T11:35:01.512Z,7.68
2022-09-11T11:37:32.539Z,6.78
2022-09-11T11:40:03.527Z,5.75
2022-09-11T11:42:34.969Z,5.60
2022-09-11T11:45:03.885Z,5.72
2022-09-11T11:47:32.843Z,5.50
2022-09-11T11:50:03.318Z,6.20
2022-09-11T11:52:41.914Z,6.30
2022-09-11T11:55:18.063Z,6.00
2022-09-11T11:57:49.431Z,6.10
2022-09-11T12:00:17.517Z,6.45
2022-09-11T12:02:49.509Z,5.97
2022-09-11T12:05:18.366Z,6.82
2022-09-11T12:07:42.432Z,6.80
2022-09-11T12:10:18.788Z,6.18
2022-09-11T12:12:50.374Z,5.10
2022-09-11T12:15:23.302Z,4.30
2022-09-11T12:17:49.404Z,4.85
2022-09-11T12:20:36.203Z,4.72
2022-09-11T12:23:01.806Z,4.47
2022-09-11T12:26:06.346Z,4.07
2022-09-11T12:28:31.294Z,4.10
2022-09-11T12:31:06.155Z,4.30
2022-09-11T12:33:56.268Z,4.40
2022-09-11T12:36:30.076Z,4.78
2022-09-11T12:38:58.131Z,4.30
2022-09-11T12:41:30.140Z,4.55
2022-09-11T12:43:55.835Z,4.32
2022-09-11T12:47:14.598Z,4.57
2022-09-11T12:49:39.392Z,4.63
2022-09-11T12:52:03.423Z,4.90
2022-09-11T12:54:32.007Z,5.82
2022-09-11T12:57:03.386Z,5.88
2022-09-11T12:59:34.164Z,6.22
2022-09-11T13:01:58.646Z,5.65
2022-09-11T13:04:26.375Z,5.55
2022-09-11T13:06:54.884Z,5.85
2022-09-11T13:09:23.466Z,5.40
2022-09-11T13:11:49.882Z,5.43
2022-09-11T13:14:52.943Z,5.20
2022-09-11T13:17:30.267Z,5.38
2022-09-11T13:19:58.595Z,5.97
2022-09-11T13:22:25.708Z,5.30
2022-09-11T13:24:51.970Z,6.82
2022-09-11T13:27:23.863Z,5.95
2022-09-11T13:29:49.615Z,6.00
2022-09-11T13:32:17.798Z,5.50
2022-09-11T13:34:46.611Z,5.88
2022-09-11T13:37:14.038Z,5.47
2022-09-11T13:39:41.606Z,5.80
2022-09-11T13:42:05.558Z,5.30
2022-09-11T13:44:38.034Z,5.70
2022-09-11T13:47:06.395Z,4.93
2022-09-11T13:49:36.339Z,4.57
2022-09-11T13:52:00.627Z,3.90
2022-09-11T13:54:30.786Z,3.47
2022-09-11T13:57:14.878Z,3.20
2022-09-11T13:59:43.016Z,3.15
2022-09-11T14:02:20.793Z,3.20
2022-09-11T14:04:46.356Z,3.65
2022-09-11T14:07:22.563Z,3.20
2022-09-11T14:09:52.487Z,3.10
2022-09-11T14:12:16.527Z,2.97
2022-09-11T14:14:42.902Z,3.25
2022-09-11T14:17:11.058Z,2.95
2022-09-11T14:19:37.860Z,3.72
2022-09-11T14:22:15.306Z,3.10
2022-09-11T14:24:39.174Z,3.10
2022-09-11T14:27:04.378Z,3.08
2022-09-11T14:29:31.506Z,4.35
2022-09-11T14:31:56.734Z,4.00
2022-09-11T14:34:23.247Z,3.22
2022-09-11T14:36:52.723Z,2.90
2022-09-11T14:39:24.500Z,3.30
2022-09-11T14:41:48.125Z,2.78
2022-09-11T14:44:15.989Z,3.05
2022-09-11T14:46:39.864Z,2.97
2022-09-11T14:49:03.446Z,2.90
2022-09-11T14:51:28.986Z,3.15
2022-09-11T14:53:52.503Z,3.10
2022-09-11T14:56:16.078Z,2.90
2022-09-11T14:58:39.750Z,3.15
2022-09-11T15:01:03.466Z,3.13
2022-09-11T15:03:27.107Z,3.33
2022-09-11T15:05:56.607Z,3.17
2022-09-11T15:08:21.535Z,3.42
2022-09-11T15:10:46.471Z,3.35
2022-09-11T15:13:10.265Z,3.83
2022-09-11T15:15:35.084Z,3.95
2022-09-11T15:17:58.601Z,3.40
2022-09-11T15:20:24.442Z,3.50
2022-09-11T15:22:48.587Z,3.22
2022-09-11T15:25:13.753Z,3.30
2022-09-11T15:27:37.342Z,3.28
2022-09-11T15:30:01.327Z,3.40
2022-09-11T15:32:25.070Z,3.38
2022-09-11T15:34:48.784Z,3.10
2022-09-11T15:37:12.879Z,3.60
2022-09-11T15:39:36.479Z,3.40
2022-09-11T15:42:01.804Z,3.17
2022-09-11T15:44:28.761Z,3.10
2022-09-11T15:46:54.946Z,2.80
2022-09-11T15:49:18.668Z,2.95
2022-09-11T15:51:42.325Z,3.20
2022-09-11T15:54:06.174Z,2.67
2022-09-11T15:56:30.533Z,2.40
2022-09-11T15:58:57.961Z,2.90
2022-09-11T16:01:24.058Z,2.42
2022-09-11T16:03:51.880Z,2.30
2022-09-11T16:06:15.418Z,2.40
2022-09-11T16:08:39.782Z,2.50
2022-09-11T16:11:05.880Z,2.45
2022-09-11T16:13:29.436Z,2.40
2022-09-11T16:16:04.112Z,2.33
2022-09-11T16:18:27.727Z,2.35
2022-09-11T16:20:58.081Z,2.67
2022-09-11T16:23:21.952Z,2.30
2022-09-11T16:25:45.492Z,2.30
2022-09-11T16:28:09.740Z,2.45
2022-09-11T16:30:43.233Z,2.60
2022-09-11T16:33:12.571Z,2.17
2022-09-11T16:35:36.321Z,2.40
2022-09-11T16:38:00.800Z,2.40
2022-09-11T16:40:24.378Z,2.40
2022-09-11T16:42:47.979Z,2.10
2022-09-11T16:45:12.079Z,2.70
2022-09-11T16:47:35.711Z,2.47
2022-09-11T16:50:08.655Z,2.60
2022-09-11T16:52:33.062Z,2.30
2022-09-11T16:54:56.583Z,2.55
2022-09-11T16:57:20.179Z,2.63
2022-09-11T16:59:43.779Z,2.58
2022-09-11T17:02:07.594Z,2.45
2022-09-11T17:04:31.242Z,2.50
2022-09-11T17:06:56.646Z,2.65
2022-09-11T17:09:20.176Z,2.60
2022-09-11T17:11:44.738Z,2.88
2022-09-11T17:14:08.290Z,2.70
2022-09-11T17:16:35.651Z,2.50
2022-09-11T17:19:01.671Z,3.00
2022-09-11T17:21:27.434Z,2.90
2022-09-11T17:23:53.985Z,2.83
2022-09-11T17:26:17.971Z,2.80
2022-09-11T17:28:42.911Z,3.10
2022-09-11T17:31:10.174Z,3.15
2022-09-11T17:33:33.867Z,2.70
2022-09-11T17:35:57.511Z,2.90
2022-09-11T17:38:21.230Z,5.10
2022-09-11T17:40:46.250Z,3.55
2022-09-11T17:43:13.046Z,3.63
2022-09-11T17:45:36.675Z,3.53
2022-09-11T17:48:01.168Z,3.80
2022-09-11T17:50:25.704Z,3.92
2022-09-11T17:52:50.750Z,3.90
2022-09-11T17:55:14.359Z,4.45
2022-09-11T17:57:41.126Z,4.90
2022-09-11T18:00:06.370Z,4.15
2022-09-11T18:02:35.539Z,4.05
2022-09-11T18:04:59.111Z,5.10
2022-09-11T18:07:22.723Z,4.43
2022-09-11T18:09:46.978Z,4.60
2022-09-11T18:12:11.364Z,4.72
2022-09-11T18:14:38.331Z,4.60
2022-09-11T18:17:01.842Z,4.90
2022-09-11T18:19:25.787Z,5.28
2022-09-11T18:21:50.734Z,4.72
2022-09-11T18:24:19.799Z,4.57
2022-09-11T18:26:44.056Z,4.70
2022-09-11T18:29:11.458Z,5.07
2022-09-11T18:31:41.601Z,5.55
2022-09-11T18:34:05.878Z,4.95
2022-09-11T18:36:31.790Z,6.28
2022-09-11T18:39:00.018Z,6.50
2022-09-11T18:41:24.738Z,6.07
2022-09-11T18:43:48.822Z,5.43
2022-09-11T18:46:12.635Z,6.28
2022-09-11T18:48:39.446Z,5.50
2022-09-11T18:51:07.706Z,6.53
2022-09-11T18:53:31.375Z,6.10
2022-09-11T18:56:00.823Z,5.50
2022-09-11T18:58:24.519Z,5.72
2022-09-11T19:00:48.103Z,6.47
2022-09-11T19:03:12.182Z,5.80
2022-09-11T19:05:37.094Z,6.00
2022-09-11T19:08:01.803Z,6.28
2022-09-11T19:10:25.579Z,6.40
2022-09-11T19:12:50.362Z,6.47
2022-09-11T19:15:13.910Z,6.30
2022-09-11T19:17:38.391Z,5.95
2022-09-11T19:20:02.180Z,5.93
2022-09-11T19:22:28.084Z,6.35
2022-09-11T19:24:52.292Z,6.65
2022-09-11T19:27:15.939Z,5.97
2022-09-11T19:29:40.020Z,6.28
2022-09-11T19:32:03.929Z,6.10
2022-09-11T19:34:27.587Z,6.88
2022-09-11T19:36:52.070Z,5.68
2022-09-11T19:39:17.076Z,6.80
2022-09-11T19:41:41.419Z,6.00
2022-09-11T19:44:07.251Z,6.35
2022-09-11T19:46:33.124Z,6.85
2022-09-11T19:49:00.722Z,6.70
2022-09-11T19:51:26.702Z,6.63
2022-09-11T19:53:51.987Z,6.53
2022-09-11T19:56:17.064Z,6.50
2022-09-11T19:58:41.054Z,6.95
2022-09-11T20:01:09.053Z,5.93
2022-09-11T20:03:32.823Z,6.43
2022-09-11T20:05:56.391Z,6.00
2022-09-11T20:08:19.944Z,6.25
2022-09-11T20:10:45.811Z,6.63
2022-09-11T20:13:11.008Z,6.53
2022-09-11T20:15:36.747Z,6.72
2022-09-11T20:18:00.506Z,6.32
2022-09-11T20:20:24.155Z,6.30
2022-09-11T20:22:47.700Z,6.38
2022-09-11T20:25:12.259Z,7.22
2022-09-11T20:27:35.927Z,6.35
2022-09-11T20:30:00.990Z,5.93
2022-09-11T20:32:24.694Z,6.70
2022-09-11T20:34:48.278Z,6.15
2022-09-11T20:37:11.773Z,5.85
2022-09-11T20:39:35.347Z,5.40
2022-09-11T20:42:00.633Z,5.68
2022-09-11T20:44:25.123Z,5.70
2022-09-11T20:46:50.072Z,5.50
2022-09-11T20:49:13.823Z,6.00
2022-09-11T20:51:37.663Z,5.85
2022-09-11T20:54:01.268Z,5.43
2022-09-11T20:56:25.094Z,5.95
2022-09-11T20:58:49.159Z,6.13
2022-09-11T21:01:16.741Z,6.35
2022-09-11T21:03:46.586Z,5.47
2022-09-11T21:06:10.727Z,6.13
2022-09-11T21:08:34.299Z,5.63
2022-09-11T21:11:02.834Z,6.03
2022-09-11T21:13:26.414Z,5.82
2022-09-11T21:15:50.128Z,5.68
2022-09-11T21:18:14.484Z,6.03
2022-09-11T21:20:39.994Z,6.38
2022-09-11T21:23:03.693Z,5.95
2022-09-11T21:25:28.183Z,5.78
2022-09-11T21:27:51.719Z,6.13
2022-09-11T21:30:15.618Z,7.07
2022-09-11T21:32:39.139Z,7.20
2022-09-11T21:35:02.685Z,6.80
2022-09-11T21:37:27.611Z,6.82
2022-09-11T21:39:51.595Z,7.50
2022-09-11T21:42:15.172Z,7.32
2022-09-11T21:44:38.706Z,7.72
2022-09-11T21:47:02.295Z,6.82
2022-09-11T21:49:25.935Z,6.20
2022-09-11T21:51:49.471Z,7.43
2022-09-11T21:54:14.616Z,5.70
2022-09-11T21:56:38.147Z,5.75
2022-09-11T21:59:02.311Z,6.20
2022-09-11T22:01:27.458Z,5.95
2022-09-11T22:03:51.497Z,5.82
2022-09-11T22:06:15.490Z,5.80
2022-09-11T22:08:41.032Z,5.35
2022-09-11T22:11:06.895Z,6.00
2022-09-11T22:13:30.876Z,5.40
2022-09-11T22:15:54.467Z,4.90
2022-09-11T22:18:20.018Z,4.97
2022-09-11T22:20:43.915Z,5.15
2022-09-11T22:23:07.578Z,5.30
2022-09-11T22:25:31.255Z,5.85
2022-09-11T22:27:56.738Z,5.45
2022-09-11T22:30:20.471Z,5.32
2022-09-11T22:32:44.035Z,5.50
2022-09-11T22:35:08.384Z,5.50
2022-09-11T22:37:31.965Z,5.45
2022-09-11T22:39:55.565Z,5.00
2022-09-11T22:42:19.110Z,4.72
2022-09-11T22:44:44.034Z,4.35
2022-09-11T22:47:07.602Z,5.05
2022-09-11T22:49:31.151Z,4.55
2022-09-11T22:51:54.803Z,4.72
2022-09-11T22:54:18.407Z,4.90
2022-09-11T22:56:41.968Z,4.60
2022-09-11T22:59:05.518Z,4.45
2022-09-11T23:01:30.495Z,5.13
2022-09-11T23:03:54.898Z,5.10
2022-09-11T23:06:36.456Z,4.60
2022-09-11T23:09:01.903Z,4.32
2022-09-11T23:11:25.781Z,5.43
2022-09-11T23:13:50.413Z,4.55
2022-09-11T23:16:15.821Z,4.40
2022-09-11T23:18:40.800Z,4.63
2022-09-11T23:21:04.542Z,4.30
2022-09-11T23:23:28.101Z,4.20
2022-09-11T23:25:52.007Z,3.97
2022-09-11T23:28:15.658Z,3.97
2022-09-11T23:30:40.027Z,3.75
2022-09-11T23:33:03.566Z,4.30
2022-09-11T23:35:28.442Z,4.63
2022-09-11T23:37:52.054Z,4.35
2022-09-11T23:40:15.672Z,3.90
2022-09-11T23:42:39.351Z,4.65
2022-09-11T23:45:02.891Z,4.05
2022-09-11T23:47:26.506Z,4.30
2022-09-11T23:49:50.014Z,4.68
2022-09-11T23:52:15.103Z,4.68
2022-09-11T23:54:38.631Z,4.28
2022-09-11T23:57:02.382Z,4.88
2022-09-11T23:59:25.938Z,4.47
